createdAt,value
2023-11-08T00:01:32.182Z,23.10
2023-11-08T00:05:23.309Z,19.60
2023-11-08T00:09:11.864Z,22.10
2023-11-08T00:13:06.334Z,21.30
2023-11-08T00:16:54.848Z,23.90
2023-11-08T00:20:43.422Z,21.80
2023-11-08T00:24:24.911Z,21.50
2023-11-08T00:28:13.439Z,22.60
2023-11-08T00:32:01.933Z,23.40
2023-11-08T00:35:50.430Z,21.20
2023-11-08T00:39:39.005Z,18.70
2023-11-08T00:43:27.654Z,20.70
2023-11-08T00:47:27.170Z,22.00
2023-11-08T00:51:08.820Z,20.70
2023-11-08T00:54:49.099Z,21.60
2023-11-08T00:58:31.334Z,20.90
2023-11-08T01:02:19.837Z,21.30
2023-11-08T01:06:09.016Z,19.70
2023-11-08T01:09:50.506Z,20.30
2023-11-08T01:13:39.056Z,19.20
2023-11-08T01:17:27.573Z,22.20
2023-11-08T01:21:16.269Z,20.90
2023-11-08T01:25:02.998Z,20.40
2023-11-08T01:28:51.572Z,19.70
2023-11-08T01:32:40.135Z,20.90
2023-11-08T01:36:22.477Z,21.30
2023-11-08T01:40:11.127Z,19.70
2023-11-08T01:43:58.653Z,21.40
2023-11-08T01:47:46.551Z,23.60
2023-11-08T01:51:36.552Z,23.30
2023-11-08T01:55:18.290Z,22.20
2023-11-08T01:59:06.797Z,24.00
2023-11-08T02:02:48.144Z,24.30
2023-11-08T02:06:26.873Z,26.90
2023-11-08T02:10:15.408Z,32.60
2023-11-08T02:18:24.734Z,28.80
2023-11-08T02:22:17.051Z,29.80
2023-11-08T02:26:05.683Z,26.00
2023-11-08T02:29:54.195Z,26.30
2023-11-08T02:33:42.777Z,23.50
2023-11-08T02:37:29.493Z,21.30
2023-11-08T02:41:17.974Z,23.70
2023-11-08T02:45:06.566Z,22.80
2023-11-08T02:49:09.369Z,23.70
2023-11-08T02:53:04.106Z,20.60
2023-11-08T03:00:24.202Z,23.00
2023-11-08T03:04:12.782Z,22.60
2023-11-08T03:08:02.896Z,20.40
2023-11-08T03:11:51.428Z,21.30
2023-11-08T03:15:40.912Z,23.50
2023-11-08T03:19:28.342Z,20.40
2023-11-08T03:23:27.510Z,20.30
2023-11-08T03:27:16.052Z,20.30
2023-11-08T03:31:15.600Z,19.00
2023-11-08T03:35:04.088Z,20.50
2023-11-08T03:38:53.186Z,22.80
2023-11-08T03:42:42.263Z,20.40
2023-11-08T03:46:37.728Z,21.50
2023-11-08T03:50:19.394Z,22.20
2023-11-08T03:54:08.971Z,17.90
2023-11-08T03:57:57.592Z,21.10
2023-11-08T04:01:44.786Z,20.50
2023-11-08T04:09:07.872Z,18.80
2023-11-08T04:16:25.064Z,20.90
2023-11-08T04:20:13.812Z,23.30
2023-11-08T04:24:18.442Z,21.20
2023-11-08T04:28:05.732Z,21.20
2023-11-08T04:31:56.264Z,20.30
2023-11-08T04:35:44.873Z,19.30
2023-11-08T04:39:49.771Z,20.40
2023-11-08T04:47:10.520Z,19.40
2023-11-08T04:50:59.009Z,20.00
2023-11-08T04:54:57.775Z,22.70
2023-11-08T04:58:46.320Z,22.60
2023-11-08T05:02:38.928Z,22.90
2023-11-08T05:06:28.303Z,20.90
2023-11-08T05:10:18.173Z,21.90
2023-11-08T05:14:08.866Z,22.60
2023-11-08T05:17:49.890Z,24.10
2023-11-08T05:21:38.633Z,24.10
2023-11-08T05:25:27.172Z,45.30
2023-11-08T05:29:08.925Z,73.20
2023-11-08T05:32:58.315Z,41.40
2023-11-08T05:36:47.104Z,28.10
2023-11-08T05:40:25.038Z,25.90
2023-11-08T05:43:51.684Z,26.10
2023-11-08T05:47:47.716Z,25.20
2023-11-08T05:51:30.252Z,28.70
2023-11-08T05:55:09.890Z,27.40
2023-11-08T05:58:51.103Z,25.00
2023-11-08T06:02:39.945Z,22.70
2023-11-08T06:06:28.721Z,23.20
2023-11-08T06:10:17.617Z,25.10
2023-11-08T06:14:06.460Z,26.50
2023-11-08T06:17:54.191Z,21.60
2023-11-08T06:21:35.861Z,22.30
2023-11-08T06:25:09.899Z,21.20
2023-11-08T06:28:57.693Z,20.50
2023-11-08T06:32:46.294Z,50.10
2023-11-08T06:36:22.204Z,40.80
2023-11-08T06:40:10.810Z,40.10
2023-11-08T06:43:58.115Z,40.50
2023-11-08T06:47:32.330Z,37.50
2023-11-08T06:51:17.186Z,31.60
2023-11-08T06:55:04.364Z,30.50
2023-11-08T06:58:53.513Z,31.90
2023-11-08T07:02:30.080Z,30.20
2023-11-08T07:06:18.696Z,27.40
2023-11-08T07:10:07.297Z,30.60
2023-11-08T07:13:48.337Z,24.90
2023-11-08T07:17:36.950Z,21.40
2023-11-08T07:21:25.581Z,20.70
2023-11-08T07:25:07.776Z,21.10
2023-11-08T07:28:57.519Z,19.00
2023-11-08T07:32:49.545Z,21.30
2023-11-08T07:36:31.359Z,21.00
2023-11-08T07:40:20.620Z,21.50
2023-11-08T07:44:08.319Z,23.10
2023-11-08T07:47:57.154Z,24.50
2023-11-08T07:51:52.965Z,20.40
2023-11-08T07:55:41.581Z,23.00
2023-11-08T07:59:30.353Z,25.60
2023-11-08T08:03:12.849Z,23.30
2023-11-08T08:07:02.936Z,21.30
2023-11-08T08:10:51.633Z,23.50
2023-11-08T08:14:40.230Z,20.20
2023-11-08T08:18:30.599Z,22.20
2023-11-08T08:26:54.369Z,19.20
2023-11-08T08:30:36.230Z,20.40
2023-11-08T08:34:30.864Z,20.80
2023-11-08T08:38:13.022Z,23.00
2023-11-08T08:42:07.525Z,22.00
2023-11-08T08:45:56.135Z,21.20
2023-11-08T08:49:44.906Z,20.30
2023-11-08T08:53:35.400Z,20.80
2023-11-08T08:57:23.634Z,19.30
2023-11-08T09:01:27.621Z,20.90
2023-11-08T09:05:16.168Z,20.70
2023-11-08T09:09:05.302Z,22.90
2023-11-08T09:12:53.698Z,19.20
2023-11-08T09:16:42.290Z,21.00
2023-11-08T09:20:29.338Z,18.80
2023-11-08T09:24:16.755Z,23.00
2023-11-08T09:28:05.403Z,22.10
2023-11-08T09:31:53.983Z,20.70
2023-11-08T09:35:30.703Z,20.10
2023-11-08T09:39:20.065Z,23.00
2023-11-08T09:43:08.768Z,23.50
2023-11-08T09:46:57.592Z,20.20
2023-11-08T09:50:52.074Z,18.90
2023-11-08T09:54:40.649Z,19.20
2023-11-08T09:58:29.345Z,19.20
2023-11-08T10:02:19.590Z,21.40
2023-11-08T10:06:08.331Z,22.40
2023-11-08T10:09:56.167Z,23.80
2023-11-08T10:13:45.850Z,21.10
2023-11-08T10:19:31.248Z,21.90
2023-11-08T10:30:56.976Z,32.60
2023-11-08T10:34:57.882Z,34.60
2023-11-08T10:38:46.514Z,27.70
2023-11-08T10:47:10.865Z,24.60
2023-11-08T10:51:00.378Z,24.40
2023-11-08T10:54:49.122Z,26.20
2023-11-08T10:58:37.709Z,27.60
2023-11-08T11:02:22.536Z,28.10
2023-11-08T11:10:02.387Z,36.20
2023-11-08T11:14:06.307Z,33.60
2023-11-08T11:18:01.521Z,31.30
2023-11-08T11:21:53.032Z,27.50
2023-11-08T11:25:41.613Z,23.90
2023-11-08T11:29:48.700Z,22.40
2023-11-08T11:33:32.431Z,23.20
2023-11-08T11:37:33.192Z,19.90
2023-11-08T11:41:28.569Z,20.50
2023-11-08T11:45:26.206Z,17.60
2023-11-08T11:49:16.922Z,18.40
2023-11-08T11:53:05.621Z,20.90
2023-11-08T11:56:57.525Z,19.70
2023-11-08T12:00:44.764Z,19.00
2023-11-08T12:08:45.507Z,17.00
2023-11-08T12:13:11.751Z,18.40
2023-11-08T12:17:02.500Z,21.20
2023-11-08T12:20:53.310Z,21.80
2023-11-08T12:24:50.570Z,23.20
2023-11-08T12:28:40.010Z,21.00
2023-11-08T12:32:40.763Z,24.30
2023-11-08T12:36:29.392Z,24.70
2023-11-08T12:40:22.483Z,29.90
2023-11-08T12:44:14.219Z,36.30
2023-11-08T12:48:02.838Z,33.40
2023-11-08T12:51:51.491Z,31.60
2023-11-08T12:55:41.897Z,35.50
2023-11-08T12:59:30.481Z,30.60
2023-11-08T13:03:16.677Z,30.50
2023-11-08T13:07:05.722Z,39.00
2023-11-08T13:10:57.468Z,44.10
2023-11-08T13:14:39.138Z,42.50
2023-11-08T13:18:29.242Z,38.10
2023-11-08T13:22:19.806Z,59.10
2023-11-08T13:26:08.993Z,56.60
2023-11-08T13:29:57.825Z,54.10
2023-11-08T13:33:41.395Z,42.60
2023-11-08T13:37:33.182Z,31.90
2023-11-08T13:41:22.303Z,32.00
2023-11-08T13:45:51.778Z,30.60
2023-11-08T13:49:49.052Z,26.80
2023-11-08T13:53:27.005Z,28.10
2023-11-08T13:57:19.447Z,24.10
2023-11-08T14:01:11.908Z,27.20
2023-11-08T14:05:02.149Z,27.60
2023-11-08T14:08:43.881Z,29.70
2023-11-08T14:12:32.704Z,28.50
2023-11-08T14:16:21.602Z,29.40
2023-11-08T14:20:10.199Z,30.10
2023-11-08T14:23:51.634Z,29.60
2023-11-08T14:27:33.491Z,24.60
2023-11-08T14:31:23.152Z,28.70
2023-11-08T14:35:13.058Z,30.70
2023-11-08T14:39:02.446Z,25.80
2023-11-08T14:42:50.175Z,26.30
2023-11-08T14:46:15.802Z,24.60
2023-11-08T14:49:43.387Z,26.90
2023-11-08T14:53:23.937Z,29.50
2023-11-08T14:56:58.862Z,30.90
2023-11-08T15:00:48.646Z,27.60
2023-11-08T15:04:37.557Z,25.80
2023-11-08T15:09:49.674Z,26.20
2023-11-08T15:12:19.142Z,24.70
2023-11-08T15:16:09.794Z,23.40
2023-11-08T15:19:58.161Z,25.10
2023-11-08T15:23:45.941Z,23.60
2023-11-08T15:27:34.740Z,28.40
2023-11-08T15:31:23.753Z,21.60
2023-11-08T15:35:11.228Z,22.20
2023-11-08T15:38:38.530Z,23.00
2023-11-08T15:42:22.571Z,24.80
2023-11-08T15:46:11.351Z,22.80
2023-11-08T15:49:47.841Z,23.40
2023-11-08T15:53:36.542Z,23.90
2023-11-08T15:57:16.943Z,23.40
2023-11-08T16:01:08.282Z,22.50
2023-11-08T16:04:44.065Z,26.10
2023-11-08T16:12:51.680Z,23.70
2023-11-08T16:16:39.295Z,22.00
2023-11-08T16:20:29.958Z,24.70
2023-11-08T16:24:08.259Z,23.90
2023-11-08T16:27:53.800Z,23.70
2023-11-08T16:32:32.324Z,23.50
2023-11-08T16:35:49.781Z,27.60
2023-11-08T16:43:09.683Z,26.40
2023-11-08T16:46:58.562Z,26.00
2023-11-08T16:50:33.013Z,21.50
2023-11-08T16:54:21.984Z,24.60
2023-11-08T16:58:10.586Z,19.60
2023-11-08T17:01:55.899Z,19.30
2023-11-08T17:05:33.921Z,18.50
2023-11-08T17:09:07.671Z,19.80
2023-11-08T17:12:41.656Z,19.60
2023-11-08T17:16:35.480Z,18.40
2023-11-08T17:20:16.240Z,18.80
2023-11-08T17:23:47.160Z,19.00
2023-11-08T17:27:19.101Z,19.70
2023-11-08T17:30:48.022Z,19.20
2023-11-08T17:34:13.260Z,17.20
2023-11-08T17:38:03.649Z,19.50
2023-11-08T17:41:52.254Z,19.50
2023-11-08T17:50:01.626Z,19.00
2023-11-08T17:53:40.270Z,20.10
2023-11-08T17:56:47.303Z,22.50
2023-11-08T18:05:29.389Z,21.80
2023-11-08T18:09:10.673Z,22.80
2023-11-08T18:12:59.444Z,22.50
2023-11-08T18:16:31.210Z,20.20
2023-11-08T18:20:19.858Z,19.40
2023-11-08T18:24:08.525Z,20.70
2023-11-08T18:27:58.829Z,20.80
2023-11-08T18:31:47.585Z,22.30
2023-11-08T18:39:49.202Z,22.30
2023-11-08T18:43:38.059Z,21.70
2023-11-08T18:47:26.994Z,17.80
2023-11-08T18:51:11.408Z,19.20
2023-11-08T18:54:50.511Z,22.70
2023-11-08T18:58:42.639Z,20.90
2023-11-08T19:02:31.276Z,21.10
2023-11-08T19:06:20.693Z,21.20
2023-11-08T19:10:02.763Z,23.10
2023-11-08T19:13:50.346Z,20.40
2023-11-08T19:17:41.087Z,22.40
2023-11-08T19:21:24.690Z,22.60
2023-11-08T19:25:06.282Z,19.80
2023-11-08T19:28:27.968Z,25.40
2023-11-08T19:41:36.333Z,17.00
2023-11-08T19:45:04.124Z,16.90
2023-11-08T19:48:51.723Z,19.80
2023-11-08T19:53:02.758Z,19.10
2023-11-08T19:57:19.178Z,24.20
2023-11-08T20:01:07.931Z,20.30
2023-11-08T20:32:07.706Z,23.00
2023-11-08T21:12:56.108Z,21.30
2023-11-08T21:16:44.849Z,21.80
2023-11-08T21:25:20.504Z,21.30
2023-11-08T21:29:02.524Z,20.70
2023-11-08T21:55:00.812Z,21.00
2023-11-08T23:00:11.849Z,12.40
2023-11-08T23:03:53.289Z,14.70
2023-11-08T23:07:34.645Z,14.30
2023-11-08T23:11:23.186Z,17.40
2023-11-08T23:47:32.240Z,15.60
